Pioneer Knutsen — LMIK — position and weather

sailwx.info

Track history (hours):
 
Tides and Currents Weather Stations Pressure Air Temp Water Temp Dewpoint Dewpoint Depression Visibility Wind Speed Wind Dir Waves Ship Positions

Pioneer Knutsen

Last reported at 2014-Jul-28 23:25 UTC. Time now 2014-Aug-01 15:57 UTC.
Position N 64°45' E 011°00'.

Length 70 m; draft 3.6 m.

Type: Tanker. MMSI: 259393000.

Date/timePositionNaut miles runAvg speedWind from/ knotsBaromVisibWave heightAir tempDewpointWater temp
2014-Jul-28 23:25N 64°45' E 011°00'1011.8
2014-Jul-28 22:33N 64°52' E 011°17'1712.3
2014-Jul-28 21:10N 65°04' E 011°46'2 0.1
2014-Jul-28 03:29N 65°06' E 011°48'1112.3
2014-Jul-28 02:33N 64°57' E 011°31'1211.8
2014-Jul-28 01:33N 64°49' E 011°10'  
2014-Jul-22 21:32N 64°45' E 010°58'1010.3
2014-Jul-22 20:33N 64°52' E 011°15'27 1.3
2014-Jul-22 00:24N 65°13' E 011°53'911.0
2014-Jul-21 23:33N 65°04' E 011°45'1010.3
2014-Jul-21 22:33N 64°57' E 011°28'1010.2
2014-Jul-21 21:33N 64°50' E 011°11'  
Track history (hours):
 
Tides and Currents Weather Stations Pressure Air Temp Water Temp Dewpoint Dewpoint Depression Visibility Wind Speed Wind Dir Waves Ship Positions

Pioneer Knutsen

Last reported at 2014-Jul-28 23:25 UTC. Time now 2014-Aug-01 15:57 UTC.
Position N 64°45' E 011°00'.

Length 70 m; draft 3.6 m.

Type: Tanker. MMSI: 259393000.

Date/timePositionNaut miles runAvg speedWind from/ knotsBaromVisibWave heightAir tempDewpointWater temp
2014-Jul-28 23:25N 64°45' E 011°00'1011.8
2014-Jul-28 22:33N 64°52' E 011°17'1712.3
2014-Jul-28 21:10N 65°04' E 011°46'2 0.1
2014-Jul-28 03:29N 65°06' E 011°48'1112.3
2014-Jul-28 02:33N 64°57' E 011°31'1211.8
2014-Jul-28 01:33N 64°49' E 011°10'  
2014-Jul-22 21:32N 64°45' E 010°58'1010.3
2014-Jul-22 20:33N 64°52' E 011°15'27 1.3
2014-Jul-22 00:24N 65°13' E 011°53'911.0
2014-Jul-21 23:33N 65°04' E 011°45'1010.3
2014-Jul-21 22:33N 64°57' E 011°28'1010.2
2014-Jul-21 21:33N 64°50' E 011°11'  

Dump ship's entire track history